createdAt,value
2023-03-06T00:00:50.165Z,14.15
2023-03-06T00:01:51.796Z,11.85
2023-03-06T00:02:53.555Z,14.52
2023-03-06T00:03:55.200Z,13.32
2023-03-06T00:04:57.095Z,11.63
2023-03-06T00:05:58.880Z,10.75
2023-03-06T00:07:00.462Z,11.90
2023-03-06T00:08:01.990Z,11.40
2023-03-06T00:09:03.570Z,13.07
2023-03-06T00:10:05.610Z,10.65
2023-03-06T00:11:07.035Z,9.10
2023-03-06T00:12:08.839Z,8.65
2023-03-06T00:13:13.527Z,10.63
2023-03-06T00:14:15.951Z,12.55
2023-03-06T00:15:17.454Z,12.07
2023-03-06T00:16:18.943Z,12.65
2023-03-06T00:17:20.388Z,14.70
2023-03-06T00:18:21.800Z,14.65
2023-03-06T00:19:23.592Z,15.05
2023-03-06T00:20:26.253Z,9.23
2023-03-06T00:21:27.773Z,9.85
2023-03-06T00:22:29.190Z,13.38
2023-03-06T00:23:30.633Z,13.77
2023-03-06T00:24:32.089Z,10.45
2023-03-06T00:25:36.729Z,11.50
2023-03-06T00:26:39.440Z,11.13
2023-03-06T00:27:41.281Z,10.68
2023-03-06T00:28:42.713Z,10.63
2023-03-06T00:29:44.768Z,12.73
2023-03-06T00:30:47.405Z,11.07
2023-03-06T00:31:48.961Z,11.77
2023-03-06T00:32:52.281Z,13.73
2023-03-06T00:33:53.716Z,12.40
2023-03-06T00:34:55.799Z,13.98
2023-03-06T00:36:58.637Z,9.75
2023-03-06T00:38:00.166Z,10.95
2023-03-06T00:39:01.666Z,11.82
2023-03-06T00:40:05.992Z,13.73
2023-03-06T00:41:11.947Z,13.85
2023-03-06T00:42:13.409Z,13.82
2023-03-06T00:43:14.863Z,15.25
2023-03-06T00:44:16.335Z,11.88
2023-03-06T00:45:17.813Z,12.75
2023-03-06T00:46:19.259Z,12.32
2023-03-06T00:47:20.804Z,15.48
2023-03-06T00:48:22.249Z,13.20
2023-03-06T00:49:23.678Z,15.43
2023-03-06T00:50:25.236Z,12.98
2023-03-06T00:51:26.724Z,12.40
2023-03-06T00:52:28.141Z,13.00
2023-03-06T00:53:29.596Z,14.20
2023-03-06T00:54:31.446Z,14.45
2023-03-06T00:55:33.409Z,14.45
2023-03-06T00:56:34.892Z,12.70
2023-03-06T00:57:36.438Z,14.43
2023-03-06T00:58:37.893Z,16.60
2023-03-06T00:59:39.426Z,14.25
2023-03-06T01:00:40.869Z,14.45
2023-03-06T01:01:42.372Z,13.85
2023-03-06T01:02:43.799Z,16.55
2023-03-06T01:03:45.295Z,14.90
2023-03-06T01:04:46.829Z,15.50
2023-03-06T01:05:48.279Z,16.50
2023-03-06T01:06:49.831Z,16.00
2023-03-06T01:07:51.260Z,17.63
2023-03-06T01:08:52.754Z,17.55
2023-03-06T01:09:54.333Z,17.40
2023-03-06T01:10:55.802Z,16.80
2023-03-06T01:11:57.229Z,17.90
2023-03-06T01:12:58.674Z,15.60
2023-03-06T01:14:00.135Z,19.45
2023-03-06T01:15:01.971Z,18.45
2023-03-06T01:16:12.910Z,16.50
2023-03-06T01:17:15.831Z,16.67
2023-03-06T01:18:17.276Z,19.63
2023-03-06T01:19:18.747Z,15.60
2023-03-06T01:20:20.345Z,19.92
2023-03-06T01:21:21.768Z,16.77
2023-03-06T01:22:23.174Z,15.85
2023-03-06T01:23:24.639Z,15.60
2023-03-06T01:24:26.067Z,15.25
2023-03-06T01:25:27.553Z,16.95
2023-03-06T01:26:29.065Z,18.25
2023-03-06T01:27:30.679Z,19.20
2023-03-06T01:28:34.053Z,20.42
2023-03-06T01:29:35.512Z,17.83
2023-03-06T01:30:36.948Z,21.30
2023-03-06T01:31:38.392Z,20.90
2023-03-06T01:32:40.054Z,20.20
2023-03-06T01:33:41.619Z,20.85
2023-03-06T01:34:43.080Z,19.90
2023-03-06T01:35:44.642Z,19.60
2023-03-06T01:36:46.128Z,21.92
2023-03-06T01:37:47.557Z,15.65
2023-03-06T01:38:48.983Z,15.27
2023-03-06T01:39:50.414Z,16.98
2023-03-06T01:40:51.889Z,23.67
2023-03-06T01:41:53.325Z,19.40
2023-03-06T01:42:54.808Z,20.70
2023-03-06T01:43:56.289Z,18.52
2023-03-06T01:45:08.178Z,21.58
2023-03-06T01:46:42.221Z,20.73
2023-03-06T01:47:44.761Z,18.40
2023-03-06T01:48:47.997Z,21.50
2023-03-06T01:49:49.483Z,21.05
2023-03-06T01:50:53.021Z,22.35
2023-03-06T01:52:06.423Z,21.30
2023-03-06T01:53:08.320Z,18.65
2023-03-06T01:54:17.711Z,18.48
2023-03-06T01:55:22.653Z,20.77
2023-03-06T01:56:25.322Z,23.13
2023-03-06T01:57:33.365Z,17.50
2023-03-06T01:58:35.110Z,19.63
2023-03-06T01:59:39.204Z,21.45
2023-03-06T02:00:40.659Z,21.98
2023-03-06T02:01:44.123Z,23.10
2023-03-06T02:02:51.204Z,23.13
2023-03-06T02:03:53.158Z,19.90
2023-03-06T02:04:54.663Z,22.42
2023-03-06T02:05:56.441Z,24.42
2023-03-06T02:07:00.414Z,26.08
2023-03-06T02:08:03.934Z,20.42
2023-03-06T02:09:06.613Z,21.42
2023-03-06T02:10:08.682Z,17.63
2023-03-06T02:11:22.702Z,23.40
2023-03-06T02:12:24.909Z,20.98
2023-03-06T02:14:29.998Z,18.65
2023-03-06T02:15:31.567Z,28.30
2023-03-06T02:16:34.049Z,19.90
2023-03-06T02:17:36.549Z,23.30
2023-03-06T02:18:39.145Z,20.15
2023-03-06T02:19:53.248Z,19.02
2023-03-06T02:21:02.616Z,25.20
2023-03-06T02:22:04.153Z,22.73
2023-03-06T02:23:11.988Z,21.15
2023-03-06T02:24:19.858Z,21.25
2023-03-06T02:25:50.700Z,21.73
2023-03-06T02:26:53.326Z,20.23
2023-03-06T02:27:54.846Z,19.63
2023-03-06T02:28:58.413Z,22.90
2023-03-06T02:29:59.880Z,19.95
2023-03-06T02:31:01.479Z,19.42
2023-03-06T02:32:03.104Z,19.80
2023-03-06T02:33:05.659Z,20.10
2023-03-06T02:34:14.828Z,21.27
2023-03-06T02:35:22.927Z,18.65
2023-03-06T02:37:28.466Z,17.70
2023-03-06T02:38:37.218Z,19.02
2023-03-06T02:39:42.900Z,19.20
2023-03-06T02:40:48.416Z,21.42
2023-03-06T02:41:49.852Z,16.80
2023-03-06T02:42:57.415Z,19.90
2023-03-06T02:43:58.821Z,18.90
2023-03-06T02:45:03.262Z,16.75
2023-03-06T02:46:05.511Z,19.33
2023-03-06T02:47:07.757Z,16.13
2023-03-06T02:48:09.320Z,17.67
2023-03-06T02:49:10.747Z,20.17
2023-03-06T02:50:12.201Z,19.00
2023-03-06T02:51:13.865Z,16.92
2023-03-06T02:52:15.264Z,14.75
2023-03-06T02:53:18.920Z,15.65
2023-03-06T02:54:20.429Z,14.68
2023-03-06T02:55:21.839Z,14.77
2023-03-06T02:56:23.253Z,16.40
2023-03-06T02:57:24.675Z,16.23
2023-03-06T02:58:26.122Z,14.07
2023-03-06T02:59:27.616Z,17.17
2023-03-06T03:00:30.077Z,17.90
2023-03-06T03:01:31.672Z,14.55
2023-03-06T03:02:33.090Z,14.77
2023-03-06T03:03:34.657Z,14.95
2023-03-06T03:04:36.160Z,13.68
2023-03-06T03:05:37.662Z,15.60
2023-03-06T03:06:39.062Z,12.68
2023-03-06T03:07:40.852Z,14.57
2023-03-06T03:08:42.272Z,13.48
2023-03-06T03:09:43.770Z,18.25
2023-03-06T03:10:45.206Z,15.73
2023-03-06T03:11:46.661Z,12.23
2023-03-06T03:12:48.179Z,14.77
2023-03-06T03:13:49.871Z,13.43
2023-03-06T03:14:51.325Z,16.90
2023-03-06T03:16:11.180Z,14.60
2023-03-06T03:17:12.609Z,11.05
2023-03-06T03:18:14.120Z,13.18
2023-03-06T03:19:15.595Z,10.52
2023-03-06T03:20:19.797Z,11.57
2023-03-06T03:21:21.262Z,11.73
2023-03-06T03:22:22.815Z,14.27
2023-03-06T03:23:25.240Z,12.48
2023-03-06T03:24:26.954Z,12.75
2023-03-06T03:25:28.388Z,13.85
2023-03-06T03:26:29.812Z,11.15
2023-03-06T03:27:31.227Z,14.70
2023-03-06T03:28:32.699Z,15.00
2023-03-06T03:29:34.410Z,10.60
2023-03-06T03:30:35.851Z,11.68
2023-03-06T03:31:37.350Z,14.55
2023-03-06T03:32:38.859Z,13.35
2023-03-06T03:33:41.120Z,12.85
2023-03-06T03:34:42.563Z,9.50
2023-03-06T03:35:44.062Z,11.65
2023-03-06T03:36:46.271Z,10.18
2023-03-06T03:38:49.102Z,8.82
2023-03-06T03:39:50.532Z,11.07
2023-03-06T03:40:51.967Z,13.75
2023-03-06T03:41:53.416Z,12.82
2023-03-06T03:42:54.857Z,10.93
2023-03-06T03:43:56.286Z,15.05
2023-03-06T03:44:57.688Z,10.73
2023-03-06T03:45:59.092Z,9.95
2023-03-06T03:47:00.578Z,16.20
2023-03-06T03:48:02.006Z,13.82
2023-03-06T03:49:03.872Z,12.38
2023-03-06T03:50:05.790Z,14.32
2023-03-06T03:51:10.023Z,13.27
2023-03-06T03:52:11.463Z,13.75
2023-03-06T03:53:12.876Z,8.70
2023-03-06T03:54:14.490Z,11.00
2023-03-06T03:55:16.062Z,10.63
2023-03-06T03:56:17.718Z,11.82
2023-03-06T03:57:19.140Z,9.88
2023-03-06T03:58:20.560Z,10.10
2023-03-06T03:59:22.034Z,9.52
2023-03-06T04:00:23.551Z,10.35
2023-03-06T04:01:24.963Z,11.35
2023-03-06T04:02:26.426Z,8.60
2023-03-06T04:03:27.951Z,8.95
2023-03-06T04:04:29.406Z,11.68
2023-03-06T04:05:31.135Z,12.02
2023-03-06T04:06:32.678Z,10.15
2023-03-06T04:07:34.117Z,9.23
2023-03-06T04:08:35.933Z,9.20
2023-03-06T04:09:37.398Z,9.98
2023-03-06T04:10:39.448Z,10.63
2023-03-06T04:11:40.845Z,11.73
2023-03-06T04:12:42.243Z,9.38
2023-03-06T04:13:43.718Z,17.08
2023-03-06T04:14:45.158Z,9.57
2023-03-06T04:15:48.068Z,8.27
2023-03-06T04:16:49.620Z,12.00
2023-03-06T04:17:51.328Z,8.75
2023-03-06T04:18:52.852Z,10.32
2023-03-06T04:19:54.298Z,9.88
2023-03-06T04:20:55.742Z,12.38
2023-03-06T04:21:57.243Z,10.57
2023-03-06T04:22:58.721Z,10.32
2023-03-06T04:24:00.168Z,13.73
2023-03-06T04:25:01.689Z,11.30
2023-03-06T04:26:03.902Z,7.22
2023-03-06T04:27:05.595Z,10.50
2023-03-06T04:28:07.480Z,9.00
2023-03-06T04:29:08.953Z,9.32
2023-03-06T04:30:11.084Z,11.25
2023-03-06T04:32:15.447Z,8.70
2023-03-06T04:33:17.239Z,10.45
2023-03-06T04:34:18.674Z,10.30
2023-03-06T04:35:20.231Z,12.23
2023-03-06T04:36:26.844Z,11.48
2023-03-06T04:37:28.312Z,10.10
2023-03-06T04:38:29.786Z,10.88
2023-03-06T04:39:31.471Z,12.35
2023-03-06T04:40:34.912Z,14.15
2023-03-06T04:41:36.566Z,11.48
2023-03-06T04:42:38.183Z,14.75
2023-03-06T04:43:39.625Z,12.18
2023-03-06T04:44:41.133Z,17.35
2023-03-06T04:45:42.567Z,12.38
2023-03-06T04:46:44.002Z,13.52
2023-03-06T04:47:45.439Z,13.23
2023-03-06T04:48:47.175Z,10.25
2023-03-06T04:49:48.592Z,11.25
2023-03-06T04:50:50.010Z,10.38
2023-03-06T04:51:51.407Z,9.18
2023-03-06T04:52:52.814Z,8.88
2023-03-06T04:53:54.202Z,10.65
2023-03-06T04:54:55.729Z,9.75
2023-03-06T04:55:57.178Z,8.68
2023-03-06T04:56:58.760Z,9.20
2023-03-06T04:58:00.336Z,9.00
2023-03-06T04:59:02.537Z,7.50
2023-03-06T05:00:10.231Z,8.45
2023-03-06T05:01:12.406Z,9.57
2023-03-06T05:02:13.925Z,8.70
2023-03-06T05:03:15.423Z,7.90
2023-03-06T05:04:16.908Z,7.35
2023-03-06T05:05:18.881Z,5.68
2023-03-06T05:06:20.358Z,6.25
2023-03-06T05:07:21.801Z,9.73
2023-03-06T05:08:23.841Z,5.57
2023-03-06T05:09:25.318Z,6.55
2023-03-06T05:10:26.878Z,5.72
2023-03-06T05:11:28.341Z,6.20
2023-03-06T05:12:29.757Z,5.28
2023-03-06T05:13:31.162Z,6.38
2023-03-06T05:14:33.952Z,6.55
2023-03-06T05:15:35.373Z,4.88
2023-03-06T05:16:36.882Z,6.18
2023-03-06T05:17:38.472Z,4.20
2023-03-06T05:18:39.920Z,5.75
2023-03-06T05:19:41.333Z,7.38
2023-03-06T05:20:43.164Z,4.50
2023-03-06T05:21:44.572Z,7.60
2023-03-06T05:22:46.021Z,4.10
2023-03-06T05:23:47.546Z,3.92
2023-03-06T05:24:48.982Z,4.50
2023-03-06T05:25:50.410Z,5.40
2023-03-06T05:26:51.855Z,7.20
2023-03-06T05:27:53.235Z,4.72
2023-03-06T05:28:55.324Z,4.95
2023-03-06T05:29:56.756Z,4.72
2023-03-06T05:30:58.152Z,6.38
2023-03-06T05:31:59.576Z,7.72
2023-03-06T05:33:01.111Z,4.10
2023-03-06T05:34:02.563Z,5.82
2023-03-06T05:35:05.595Z,6.25
2023-03-06T05:36:09.049Z,6.22
2023-03-06T05:37:10.468Z,4.47
2023-03-06T05:38:12.122Z,5.68
2023-03-06T05:39:13.614Z,6.05
2023-03-06T05:40:16.181Z,6.00
2023-03-06T05:41:17.660Z,3.90
2023-03-06T05:42:19.173Z,4.90
2023-03-06T05:43:20.801Z,5.80
2023-03-06T05:44:23.850Z,4.70
2023-03-06T05:45:25.608Z,4.72
2023-03-06T05:46:27.205Z,5.50
2023-03-06T05:47:28.616Z,4.85
2023-03-06T05:48:30.184Z,5.75
2023-03-06T05:49:33.659Z,5.93
2023-03-06T05:50:35.118Z,6.40
2023-03-06T05:51:36.771Z,6.55
2023-03-06T05:52:39.579Z,7.78
2023-03-06T05:53:40.985Z,6.60
2023-03-06T05:54:42.975Z,8.27
2023-03-06T05:55:44.437Z,7.18
2023-03-06T05:56:45.831Z,6.63
2023-03-06T05:57:48.220Z,6.05
2023-03-06T05:58:50.879Z,7.75
2023-03-06T05:59:52.352Z,9.75
2023-03-06T06:00:53.834Z,7.90
2023-03-06T06:01:56.174Z,8.68
2023-03-06T06:03:01.008Z,7.05
2023-03-06T06:04:02.435Z,7.68
2023-03-06T06:05:04.733Z,6.35
2023-03-06T06:06:10.953Z,7.50
2023-03-06T06:07:14.593Z,6.30
2023-03-06T06:08:16.181Z,6.65
2023-03-06T06:09:17.605Z,7.78
2023-03-06T06:10:19.037Z,8.02
2023-03-06T06:11:21.074Z,6.43
2023-03-06T06:12:22.683Z,6.78
2023-03-06T06:13:24.259Z,6.78
2023-03-06T06:14:26.155Z,6.72
2023-03-06T06:15:28.904Z,6.35
2023-03-06T06:16:30.392Z,7.47
2023-03-06T06:17:31.827Z,8.15
2023-03-06T06:18:33.254Z,7.18
2023-03-06T06:19:34.769Z,5.97
2023-03-06T06:20:37.372Z,6.50
2023-03-06T06:21:38.776Z,6.32
2023-03-06T06:22:40.232Z,6.38
2023-03-06T06:23:42.343Z,6.13
2023-03-06T06:25:45.185Z,4.45
2023-03-06T06:26:49.358Z,6.75
2023-03-06T06:27:50.759Z,5.72
2023-03-06T06:28:52.192Z,6.03
2023-03-06T06:29:53.606Z,5.55
2023-03-06T06:30:55.177Z,5.90
2023-03-06T06:31:56.825Z,5.45
2023-03-06T06:32:58.486Z,5.78
2023-03-06T06:33:59.894Z,5.63
2023-03-06T06:35:01.349Z,5.60
2023-03-06T06:36:02.934Z,5.65
2023-03-06T06:37:04.549Z,6.25
2023-03-06T06:38:06.017Z,6.00
2023-03-06T06:39:08.039Z,6.40
2023-03-06T06:40:10.144Z,6.25
2023-03-06T06:42:38.897Z,5.55
2023-03-06T06:43:41.187Z,6.30
2023-03-06T06:44:42.715Z,7.95
2023-03-06T06:45:44.219Z,5.97
2023-03-06T06:48:08.724Z,5.88
2023-03-06T06:49:10.402Z,6.07
2023-03-06T06:50:13.818Z,5.70
2023-03-06T06:51:16.946Z,5.55
2023-03-06T06:52:18.757Z,6.07
2023-03-06T06:53:20.288Z,6.50
2023-03-06T06:54:22.302Z,5.00
2023-03-06T06:55:23.757Z,6.03
2023-03-06T06:56:25.478Z,5.22
2023-03-06T06:57:26.988Z,6.85
2023-03-06T06:58:28.411Z,5.78
2023-03-06T06:59:29.858Z,5.22
2023-03-06T07:00:31.274Z,5.30
2023-03-06T07:01:32.878Z,6.40
2023-03-06T07:02:34.420Z,5.72
2023-03-06T07:03:36.067Z,6.10
2023-03-06T07:04:44.284Z,7.43
2023-03-06T07:05:55.837Z,6.07
2023-03-06T07:06:58.083Z,5.30
2023-03-06T07:07:59.524Z,6.72
2023-03-06T07:09:00.986Z,5.97
2023-03-06T07:10:08.148Z,5.20
2023-03-06T07:11:18.964Z,7.50
2023-03-06T07:12:20.431Z,6.03
2023-03-06T07:13:21.888Z,5.40
2023-03-06T07:14:23.432Z,6.28
2023-03-06T07:15:27.019Z,5.65
2023-03-06T07:16:28.483Z,5.60
2023-03-06T07:17:29.970Z,6.50
2023-03-06T07:18:31.494Z,5.38
2023-03-06T07:19:32.970Z,5.50
2023-03-06T07:20:34.778Z,5.57
2023-03-06T07:21:36.224Z,5.03
2023-03-06T07:22:50.428Z,5.80
2023-03-06T07:23:54.185Z,5.10
2023-03-06T07:24:55.739Z,5.07
2023-03-06T07:25:57.847Z,7.25
2023-03-06T07:28:00.749Z,7.78
2023-03-06T07:29:03.566Z,7.65
2023-03-06T07:30:06.353Z,7.07
2023-03-06T07:31:09.936Z,6.85
2023-03-06T07:32:11.816Z,6.00
2023-03-06T07:33:13.963Z,6.78
2023-03-06T07:35:20.487Z,5.82
2023-03-06T07:36:23.915Z,7.22
2023-03-06T07:37:25.358Z,5.57
2023-03-06T07:38:26.858Z,5.63
2023-03-06T07:39:30.026Z,7.72
2023-03-06T07:40:31.672Z,10.35
2023-03-06T07:41:33.406Z,6.68
2023-03-06T07:42:35.427Z,6.25
2023-03-06T07:43:36.914Z,4.55
2023-03-06T07:44:38.340Z,5.18
2023-03-06T07:45:39.827Z,6.47
2023-03-06T07:46:41.437Z,4.85
2023-03-06T07:47:42.979Z,4.97
2023-03-06T07:48:44.700Z,5.38
2023-03-06T07:49:46.254Z,4.65
2023-03-06T07:50:55.638Z,5.30
2023-03-06T07:51:58.318Z,5.47
2023-03-06T07:52:59.775Z,5.32
2023-03-06T07:54:01.244Z,4.90
2023-03-06T07:55:02.857Z,5.53
2023-03-06T07:56:08.953Z,5.75
2023-03-06T07:57:10.512Z,5.57
2023-03-06T07:58:11.936Z,5.03
2023-03-06T07:59:13.409Z,4.95
2023-03-06T08:00:15.650Z,6.60
2023-03-06T08:01:19.814Z,5.00
2023-03-06T08:02:21.287Z,5.45
2023-03-06T08:03:22.657Z,6.13
2023-03-06T08:04:24.115Z,7.15
2023-03-06T08:05:25.517Z,4.50
2023-03-06T08:06:27.841Z,5.68
2023-03-06T08:07:30.443Z,6.70
2023-03-06T08:08:33.673Z,7.18
2023-03-06T08:09:35.834Z,5.90
2023-03-06T08:10:37.408Z,6.82
2023-03-06T08:11:38.870Z,6.50
2023-03-06T08:12:40.309Z,5.30
2023-03-06T08:13:41.908Z,5.97
2023-03-06T08:14:43.387Z,7.30
2023-03-06T08:15:48.645Z,5.95
2023-03-06T08:16:51.177Z,4.65
2023-03-06T08:17:52.938Z,6.40
2023-03-06T08:18:54.729Z,7.20
2023-03-06T08:19:56.211Z,7.95
2023-03-06T08:21:09.051Z,4.13
2023-03-06T08:22:11.177Z,6.07
2023-03-06T08:24:16.572Z,5.55
2023-03-06T08:25:18.107Z,3.50
2023-03-06T08:26:25.473Z,4.88
2023-03-06T08:27:26.921Z,4.72
2023-03-06T08:28:31.427Z,4.95
2023-03-06T08:29:32.918Z,4.85
2023-03-06T08:30:34.362Z,6.47
2023-03-06T08:31:41.242Z,5.40
2023-03-06T08:32:42.721Z,6.70
2023-03-06T08:33:44.181Z,4.65
2023-03-06T08:34:45.701Z,4.53
2023-03-06T08:35:47.405Z,4.25
2023-03-06T08:36:48.874Z,5.13
2023-03-06T08:37:50.280Z,6.55
2023-03-06T08:38:52.021Z,7.88
2023-03-06T08:39:53.449Z,6.43
2023-03-06T08:40:54.879Z,6.75
2023-03-06T08:41:56.295Z,5.13
2023-03-06T08:42:57.735Z,4.50
2023-03-06T08:43:59.277Z,5.05
2023-03-06T08:45:00.768Z,3.70
2023-03-06T08:46:02.497Z,6.10
2023-03-06T08:47:04.934Z,6.28
2023-03-06T08:48:06.488Z,6.22
2023-03-06T08:49:08.011Z,6.05
2023-03-06T08:50:10.306Z,5.38
2023-03-06T08:51:11.732Z,4.25
2023-03-06T08:52:13.151Z,3.53
2023-03-06T08:53:15.022Z,4.65
2023-03-06T08:54:16.485Z,6.20
2023-03-06T08:55:17.931Z,4.53
2023-03-06T08:56:31.123Z,6.25
2023-03-06T08:57:32.542Z,6.90
2023-03-06T08:58:34.048Z,9.30
2023-03-06T08:59:36.752Z,5.25
2023-03-06T09:00:38.371Z,5.47
2023-03-06T09:01:40.606Z,5.38
2023-03-06T09:02:42.093Z,9.60
2023-03-06T09:03:43.850Z,5.55
2023-03-06T09:04:45.315Z,4.97
2023-03-06T09:05:47.135Z,8.50
2023-03-06T09:06:48.592Z,6.53
2023-03-06T09:07:50.042Z,5.22
2023-03-06T09:08:52.802Z,7.25
2023-03-06T09:09:58.320Z,5.38
2023-03-06T09:10:59.863Z,6.43
2023-03-06T09:12:01.317Z,5.25
2023-03-06T09:13:02.770Z,8.65
2023-03-06T09:14:05.478Z,4.75
2023-03-06T09:15:07.606Z,5.43
2023-03-06T09:17:10.984Z,5.40
2023-03-06T09:18:12.410Z,7.13
2023-03-06T09:19:13.824Z,4.30
2023-03-06T09:20:15.666Z,4.75
2023-03-06T09:21:17.116Z,5.32
2023-03-06T09:22:18.554Z,5.72
2023-03-06T09:23:19.949Z,5.72
2023-03-06T09:24:21.645Z,7.47
2023-03-06T09:25:23.296Z,9.70
2023-03-06T09:26:35.948Z,6.45
2023-03-06T09:27:45.371Z,3.90
2023-03-06T09:28:46.859Z,5.75
2023-03-06T09:29:48.333Z,6.13
2023-03-06T09:30:50.231Z,4.55
2023-03-06T09:31:51.737Z,4.53
2023-03-06T09:32:53.150Z,5.03
2023-03-06T09:33:54.571Z,7.00
2023-03-06T09:34:56.085Z,5.07
2023-03-06T09:35:58.456Z,5.75
2023-03-06T09:37:02.125Z,5.45
2023-03-06T09:38:03.544Z,6.75
2023-03-06T09:39:05.041Z,5.78
2023-03-06T09:40:07.185Z,4.68
2023-03-06T09:42:21.350Z,4.65
2023-03-06T09:43:39.162Z,7.68
2023-03-06T09:44:43.219Z,6.43
2023-03-06T09:45:45.565Z,5.90
2023-03-06T09:47:18.718Z,4.47
2023-03-06T09:48:27.906Z,6.38
2023-03-06T09:49:47.637Z,8.68
2023-03-06T09:51:01.358Z,4.22
2023-03-06T09:52:23.278Z,6.85
2023-03-06T09:53:56.533Z,4.85
2023-03-06T09:55:08.901Z,5.78
2023-03-06T09:56:16.676Z,6.53
2023-03-06T09:57:31.667Z,7.07
2023-03-06T09:58:41.338Z,6.72
2023-03-06T09:59:47.661Z,5.72
2023-03-06T10:00:58.041Z,6.00
2023-03-06T10:02:24.723Z,9.63
2023-03-06T10:04:03.539Z,5.05
2023-03-06T10:05:12.682Z,5.75
2023-03-06T10:06:30.036Z,5.65
2023-03-06T10:08:00.670Z,6.43
2023-03-06T10:09:25.896Z,3.90
2023-03-06T10:10:52.527Z,4.72
2023-03-06T10:12:03.676Z,6.38
2023-03-06T10:13:37.841Z,5.47
2023-03-06T10:14:53.931Z,4.97
2023-03-06T10:16:06.340Z,4.40
2023-03-06T10:17:17.712Z,5.03
2023-03-06T10:18:19.149Z,5.25
2023-03-06T10:19:21.737Z,6.18
2023-03-06T10:20:28.925Z,7.60
2023-03-06T10:21:48.736Z,5.47
2023-03-06T10:23:27.678Z,4.97
2023-03-06T10:24:57.120Z,4.85
2023-03-06T10:26:07.149Z,5.95
2023-03-06T10:27:18.341Z,5.43
2023-03-06T10:28:30.574Z,4.25
2023-03-06T10:30:02.611Z,5.32
2023-03-06T10:31:16.705Z,7.93
2023-03-06T10:32:24.042Z,5.68
2023-03-06T10:34:03.930Z,7.43
2023-03-06T10:35:15.545Z,6.60
2023-03-06T10:36:18.532Z,4.65
2023-03-06T10:37:22.790Z,10.98
2023-03-06T10:38:38.185Z,6.00
2023-03-06T10:39:39.780Z,5.78
2023-03-06T10:41:10.583Z,4.45
2023-03-06T10:42:12.181Z,5.20
2023-03-06T10:43:13.817Z,6.55
2023-03-06T10:44:15.142Z,7.25
2023-03-06T10:45:17.247Z,6.35
2023-03-06T10:47:36.798Z,3.88
2023-03-06T10:48:41.974Z,4.05
2023-03-06T10:49:57.795Z,4.47
2023-03-06T10:51:19.229Z,6.22
2023-03-06T10:52:22.562Z,4.55
2023-03-06T10:53:28.897Z,4.38
2023-03-06T10:54:39.515Z,3.92
2023-03-06T10:55:46.372Z,5.13
2023-03-06T10:56:48.089Z,4.78
2023-03-06T10:57:49.567Z,4.45
2023-03-06T10:59:06.420Z,5.32
2023-03-06T11:00:31.285Z,4.13
2023-03-06T11:01:33.314Z,6.90
2023-03-06T11:02:38.363Z,4.03
2023-03-06T11:03:39.863Z,4.20
2023-03-06T11:04:46.416Z,5.18
2023-03-06T11:06:10.018Z,3.22
2023-03-06T11:07:19.263Z,3.70
2023-03-06T11:08:22.484Z,5.13
2023-03-06T11:09:26.077Z,4.80
2023-03-06T11:10:29.654Z,3.38
2023-03-06T11:11:37.502Z,3.53
2023-03-06T11:12:41.324Z,2.95
2023-03-06T11:13:44.453Z,7.88
2023-03-06T11:14:45.876Z,4.78
2023-03-06T11:16:18.597Z,7.00
2023-03-06T11:17:32.093Z,5.20
2023-03-06T11:18:42.695Z,4.32
2023-03-06T11:19:44.121Z,4.25
2023-03-06T11:20:55.371Z,4.95
2023-03-06T11:22:06.464Z,3.75
2023-03-06T11:23:38.336Z,5.88
2023-03-06T11:24:44.172Z,3.35
2023-03-06T11:26:01.210Z,3.83
2023-03-06T11:27:17.075Z,5.35
2023-03-06T11:29:00.226Z,4.55
2023-03-06T11:30:06.213Z,2.22
2023-03-06T11:31:16.429Z,6.22
2023-03-06T11:32:24.682Z,4.10
2023-03-06T11:33:58.439Z,3.53
2023-03-06T11:35:05.722Z,8.88
2023-03-06T11:36:21.327Z,5.70
2023-03-06T11:37:31.946Z,5.85
2023-03-06T11:38:43.206Z,5.20
2023-03-06T11:39:53.238Z,5.78
2023-03-06T11:40:59.583Z,3.63
2023-03-06T11:42:25.876Z,3.28
2023-03-06T11:43:41.078Z,3.08
2023-03-06T11:45:05.942Z,6.57
2023-03-06T11:46:18.573Z,6.43
2023-03-06T11:47:25.779Z,3.75
2023-03-06T11:48:53.288Z,7.78
2023-03-06T11:50:12.884Z,4.70
2023-03-06T11:51:19.510Z,7.05
2023-03-06T11:52:43.500Z,3.92
2023-03-06T11:53:45.110Z,4.65
2023-03-06T11:54:54.201Z,5.25
2023-03-06T11:56:22.783Z,5.93
2023-03-06T11:57:40.964Z,5.30
2023-03-06T11:58:45.681Z,3.25
2023-03-06T12:00:11.343Z,4.18
2023-03-06T12:01:18.700Z,6.35
2023-03-06T12:02:35.435Z,4.93
2023-03-06T12:04:14.177Z,3.92
2023-03-06T12:05:34.417Z,4.03
2023-03-06T12:06:51.742Z,4.93
2023-03-06T12:08:17.373Z,2.65
2023-03-06T12:09:29.035Z,4.00
2023-03-06T12:10:51.810Z,3.28
2023-03-06T12:12:18.741Z,4.72
2023-03-06T12:13:41.305Z,3.05
2023-03-06T12:15:08.896Z,4.10
2023-03-06T12:16:25.373Z,5.25
2023-03-06T12:17:38.862Z,4.38
2023-03-06T12:19:07.180Z,6.05
2023-03-06T12:20:42.100Z,4.10
2023-03-06T12:22:22.096Z,5.97
2023-03-06T12:23:41.500Z,3.90
2023-03-06T12:24:52.090Z,4.40
2023-03-06T12:26:10.607Z,7.68
2023-03-06T12:27:31.891Z,3.47
2023-03-06T12:28:40.645Z,4.38
2023-03-06T12:29:57.011Z,3.97
2023-03-06T12:31:15.761Z,7.15
2023-03-06T12:32:46.517Z,4.70
2023-03-06T12:34:13.372Z,9.15
2023-03-06T12:35:14.769Z,9.90
2023-03-06T12:36:29.730Z,7.55
2023-03-06T12:38:30.235Z,5.63
2023-03-06T12:39:37.622Z,6.32
2023-03-06T12:40:39.274Z,5.45
2023-03-06T12:42:08.888Z,4.50
2023-03-06T12:43:34.840Z,7.90
2023-03-06T12:45:10.217Z,5.53
2023-03-06T12:46:14.113Z,5.20
2023-03-06T12:47:20.140Z,2.85
2023-03-06T12:48:27.051Z,4.80
2023-03-06T12:49:33.030Z,3.47
2023-03-06T12:50:38.546Z,6.15
2023-03-06T12:51:40.761Z,5.65
2023-03-06T12:52:42.614Z,4.75
2023-03-06T12:53:45.272Z,5.13
2023-03-06T12:54:47.078Z,4.45
2023-03-06T12:55:50.537Z,6.10
2023-03-06T12:56:54.305Z,3.50
2023-03-06T12:57:55.762Z,4.05
2023-03-06T12:59:02.380Z,3.85
2023-03-06T13:00:04.333Z,3.92
2023-03-06T13:01:11.697Z,6.10
2023-03-06T13:02:28.513Z,8.88
2023-03-06T13:03:44.753Z,5.05
2023-03-06T13:05:23.490Z,5.13
2023-03-06T13:06:50.134Z,5.30
2023-03-06T13:08:16.721Z,6.00
2023-03-06T13:09:39.628Z,3.67
2023-03-06T13:10:43.486Z,3.70
2023-03-06T13:11:50.726Z,3.85
2023-03-06T13:12:58.129Z,3.70
2023-03-06T13:13:59.681Z,5.80
2023-03-06T13:15:18.794Z,5.55
2023-03-06T13:16:34.376Z,4.43
2023-03-06T13:17:38.079Z,5.85
2023-03-06T13:18:50.794Z,5.70
2023-03-06T13:20:14.137Z,10.52
2023-03-06T13:21:43.894Z,7.50
2023-03-06T13:22:46.805Z,6.57
2023-03-06T13:23:52.872Z,8.85
2023-03-06T13:25:19.271Z,7.00
2023-03-06T13:26:24.052Z,7.40
2023-03-06T13:27:54.724Z,5.80
2023-03-06T13:28:57.919Z,7.28
2023-03-06T13:30:06.447Z,4.15
2023-03-06T13:31:18.193Z,5.35
2023-03-06T13:32:37.029Z,6.32
2023-03-06T13:33:38.638Z,4.20
2023-03-06T13:34:48.373Z,6.68
2023-03-06T13:35:55.723Z,4.35
2023-03-06T13:37:25.032Z,10.27
2023-03-06T13:38:34.057Z,6.32
2023-03-06T13:39:55.428Z,3.53
2023-03-06T13:41:24.909Z,8.52
2023-03-06T13:42:31.770Z,5.05
2023-03-06T13:43:41.388Z,3.13
2023-03-06T13:44:44.726Z,8.40
2023-03-06T13:45:47.921Z,4.63
2023-03-06T13:47:06.231Z,6.20
2023-03-06T13:48:43.239Z,5.55
2023-03-06T13:49:47.054Z,5.38
2023-03-06T13:50:49.438Z,4.25
2023-03-06T13:51:53.825Z,5.43
2023-03-06T13:53:10.651Z,6.55
2023-03-06T13:54:20.850Z,3.90
2023-03-06T13:55:38.104Z,4.15
2023-03-06T13:56:52.311Z,4.38
2023-03-06T13:58:28.040Z,5.53
2023-03-06T14:00:08.238Z,6.53
2023-03-06T14:01:41.994Z,5.25
2023-03-06T14:03:11.466Z,7.07
2023-03-06T14:04:34.318Z,7.97
2023-03-06T14:05:50.155Z,6.75
2023-03-06T14:07:06.474Z,5.70
2023-03-06T14:08:16.682Z,7.57
2023-03-06T14:09:26.438Z,5.32
2023-03-06T14:10:31.864Z,7.35
2023-03-06T14:11:35.344Z,6.38
2023-03-06T14:12:48.811Z,6.47
2023-03-06T14:13:54.474Z,7.60
2023-03-06T14:14:59.503Z,4.95
2023-03-06T14:16:01.102Z,5.47
2023-03-06T14:17:05.267Z,3.70
2023-03-06T14:18:15.905Z,5.55
2023-03-06T14:19:18.876Z,4.03
2023-03-06T14:20:21.450Z,5.10
2023-03-06T14:21:49.246Z,4.30
2023-03-06T14:22:50.682Z,4.80
2023-03-06T14:24:03.841Z,6.07
2023-03-06T14:25:13.993Z,5.65
2023-03-06T14:26:17.467Z,6.68
2023-03-06T14:27:19.293Z,4.30
2023-03-06T14:28:27.194Z,6.43
2023-03-06T14:29:29.852Z,6.15
2023-03-06T14:30:31.302Z,4.50
2023-03-06T14:31:37.801Z,5.82
2023-03-06T14:32:40.464Z,5.40
2023-03-06T14:33:48.869Z,3.97
2023-03-06T14:34:50.452Z,4.70
2023-03-06T14:35:52.943Z,5.13
2023-03-06T14:37:05.557Z,4.22
2023-03-06T14:38:08.040Z,8.57
2023-03-06T14:39:15.332Z,5.90
2023-03-06T14:40:21.679Z,4.57
2023-03-06T14:41:29.379Z,4.25
2023-03-06T14:42:30.942Z,5.97
2023-03-06T14:43:32.880Z,5.15
2023-03-06T14:44:34.533Z,4.97